createdAt,value
2019-01-05T00:02:11.438Z,17.93
2019-01-05T00:05:00.198Z,18.50
2019-01-05T00:08:03.603Z,17.67
2019-01-05T00:10:55.310Z,18.87
2019-01-05T00:13:52.722Z,18.40
2019-01-05T00:16:47.324Z,17.27
2019-01-05T00:19:40.152Z,18.47
2019-01-05T00:22:31.871Z,16.63
2019-01-05T00:25:36.576Z,14.53
2019-01-05T00:28:31.303Z,15.00
2019-01-05T00:31:32.082Z,19.00
2019-01-05T00:34:27.865Z,15.17
2019-01-05T00:37:17.376Z,15.47
2019-01-05T00:40:23.006Z,14.83
2019-01-05T00:43:12.185Z,19.43
2019-01-05T00:46:17.356Z,22.37
2019-01-05T00:49:09.573Z,17.43
2019-01-05T00:52:02.292Z,17.23
2019-01-05T00:54:54.482Z,17.30
2019-01-05T00:57:58.661Z,17.73
2019-01-05T01:00:59.261Z,19.63
2019-01-05T01:03:54.029Z,18.07
2019-01-05T01:06:45.549Z,19.80
2019-01-05T01:09:34.263Z,19.93
2019-01-05T01:12:25.749Z,17.87
2019-01-05T01:15:23.445Z,19.57
2019-01-05T01:18:17.777Z,20.23
2019-01-05T01:21:09.289Z,17.90
2019-01-05T01:24:11.786Z,19.23
2019-01-05T01:27:06.527Z,19.20
2019-01-05T01:30:12.029Z,19.33
2019-01-05T01:33:10.445Z,18.10
2019-01-05T01:36:07.681Z,16.97
2019-01-05T01:39:14.482Z,18.60
2019-01-05T01:42:21.388Z,18.63
2019-01-05T01:45:21.842Z,17.73
2019-01-05T01:48:17.649Z,19.20
2019-01-05T01:51:21.074Z,16.17
2019-01-05T01:54:26.356Z,18.00
2019-01-05T01:57:22.300Z,17.57
2019-01-05T02:00:15.638Z,19.67
2019-01-05T02:03:11.944Z,17.33
2019-01-05T02:06:11.545Z,18.23
2019-01-05T02:09:19.895Z,19.10
2019-01-05T02:12:19.704Z,19.83
2019-01-05T02:15:17.359Z,19.40
2019-01-05T02:18:24.151Z,18.20
2019-01-05T02:21:30.537Z,19.50
2019-01-05T02:24:37.456Z,21.17
2019-01-05T02:27:55.785Z,19.17
2019-01-05T02:31:08.013Z,17.20
2019-01-05T02:34:20.434Z,18.40
2019-01-05T02:37:26.738Z,18.37
2019-01-05T02:40:32.742Z,20.00
2019-01-05T02:43:46.651Z,17.77
2019-01-05T02:47:03.873Z,19.23
2019-01-05T02:50:31.372Z,20.87
2019-01-05T02:53:56.043Z,19.73
2019-01-05T02:57:23.446Z,20.60
2019-01-05T03:00:46.177Z,18.23
2019-01-05T03:04:01.586Z,19.07
2019-01-05T03:06:58.776Z,18.33
2019-01-05T03:09:59.502Z,19.13
2019-01-05T03:13:11.862Z,19.27
2019-01-05T03:16:35.228Z,18.00
2019-01-05T03:19:43.308Z,20.27
2019-01-05T03:23:09.086Z,20.60
2019-01-05T03:26:27.809Z,19.37
2019-01-05T03:29:34.058Z,20.60
2019-01-05T03:32:47.688Z,19.67
2019-01-05T03:36:18.045Z,19.10
2019-01-05T03:39:33.737Z,20.27
2019-01-05T03:42:52.586Z,20.60
2019-01-05T03:46:08.470Z,19.07
2019-01-05T03:49:17.637Z,18.30
2019-01-05T03:52:44.248Z,21.13
2019-01-05T03:56:09.117Z,21.27
2019-01-05T03:59:16.838Z,22.60
2019-01-05T04:02:17.794Z,24.10
2019-01-05T04:05:34.886Z,27.13
2019-01-05T04:08:43.202Z,21.67
2019-01-05T04:11:46.457Z,23.40
2019-01-05T04:14:46.297Z,22.87
2019-01-05T04:18:09.270Z,25.87
2019-01-05T04:21:26.316Z,24.13
2019-01-05T04:24:29.688Z,27.67
2019-01-05T04:27:36.554Z,22.07
2019-01-05T04:31:08.668Z,26.97
2019-01-05T04:34:25.375Z,27.23
2019-01-05T04:37:29.129Z,22.97
2019-01-05T04:40:41.378Z,25.03
2019-01-05T04:43:41.556Z,28.43
2019-01-05T04:47:07.589Z,23.67
2019-01-05T04:50:15.304Z,22.17
2019-01-05T04:53:19.127Z,24.70
2019-01-05T04:56:56.824Z,25.07
2019-01-05T05:00:15.263Z,26.90
2019-01-05T05:03:28.830Z,26.53
2019-01-05T05:06:55.234Z,21.97
2019-01-05T05:10:28.790Z,26.20
2019-01-05T05:13:44.165Z,27.20
2019-01-05T05:17:20.556Z,28.83
2019-01-05T05:20:31.493Z,26.53
2019-01-05T05:23:53.406Z,26.20
2019-01-05T05:27:18.049Z,28.70
2019-01-05T05:30:42.360Z,27.80
2019-01-05T05:33:45.830Z,27.33
2019-01-05T05:37:15.168Z,29.07
2019-01-05T05:40:55.778Z,28.67
2019-01-05T05:43:47.475Z,33.47
2019-01-05T05:47:05.405Z,32.37
2019-01-05T05:50:21.949Z,36.00
2019-01-05T05:53:49.205Z,27.83
2019-01-05T05:57:29.877Z,30.70
2019-01-05T06:00:24.468Z,32.60
2019-01-05T06:03:27.776Z,28.77
2019-01-05T06:06:30.582Z,31.23
2019-01-05T06:10:00.960Z,31.57
2019-01-05T06:13:37.176Z,33.07
2019-01-05T06:16:48.433Z,34.30
2019-01-05T06:20:13.085Z,31.23
2019-01-05T06:23:13.677Z,25.90
2019-01-05T06:26:20.102Z,29.93
2019-01-05T06:29:28.296Z,30.90
2019-01-05T06:33:02.157Z,26.43
2019-01-05T06:36:22.112Z,26.73
2019-01-05T06:39:34.846Z,30.00
2019-01-05T06:43:01.109Z,26.73
2019-01-05T06:46:33.277Z,29.40
2019-01-05T06:49:55.665Z,27.70
2019-01-05T06:53:09.746Z,26.87
2019-01-05T06:56:17.665Z,26.50
2019-01-05T06:59:32.857Z,37.43
2019-01-05T07:02:33.814Z,26.13
2019-01-05T07:05:51.124Z,24.40
2019-01-05T07:09:20.867Z,28.53
2019-01-05T07:12:27.448Z,22.77
2019-01-05T07:15:51.957Z,25.03
2019-01-05T07:19:18.271Z,23.40
2019-01-05T07:22:40.061Z,23.57
2019-01-05T07:26:09.270Z,24.20
2019-01-05T07:29:51.794Z,23.27
2019-01-05T07:33:22.199Z,25.93
2019-01-05T07:36:39.830Z,23.93
2019-01-05T07:39:43.473Z,25.47
2019-01-05T07:43:03.200Z,24.67
2019-01-05T07:46:27.793Z,25.10
2019-01-05T07:49:52.419Z,24.47
2019-01-05T07:52:58.787Z,28.57
2019-01-05T07:56:11.522Z,25.80
2019-01-05T07:59:26.833Z,25.13
2019-01-05T08:02:37.933Z,22.30
2019-01-05T08:05:56.303Z,24.43
2019-01-05T08:09:08.061Z,21.80
2019-01-05T08:12:22.704Z,22.50
2019-01-05T08:15:45.483Z,22.40
2019-01-05T08:19:02.543Z,24.10
2019-01-05T08:21:54.451Z,19.70
2019-01-05T08:25:18.861Z,21.93
2019-01-05T08:28:36.015Z,22.83
2019-01-05T08:31:42.442Z,20.57
2019-01-05T08:34:54.741Z,21.23
2019-01-05T08:38:28.177Z,18.10
2019-01-05T08:41:52.459Z,20.03
2019-01-05T08:45:12.800Z,17.27
2019-01-05T08:48:31.183Z,16.80
2019-01-05T08:51:34.779Z,16.17
2019-01-05T08:54:57.833Z,14.83
2019-01-05T08:58:38.885Z,15.37
2019-01-05T09:02:15.308Z,17.63
2019-01-05T09:05:45.621Z,16.43
2019-01-05T09:08:55.215Z,17.50
2019-01-05T09:12:36.241Z,17.60
2019-01-05T09:16:11.219Z,17.67
2019-01-05T09:19:22.273Z,15.00
2019-01-05T09:22:51.763Z,16.67
2019-01-05T09:25:52.294Z,18.40
2019-01-05T09:29:17.856Z,16.93
2019-01-05T09:32:36.792Z,15.90
2019-01-05T09:35:31.046Z,16.87
2019-01-05T09:38:28.317Z,15.93
2019-01-05T09:41:40.570Z,17.60
2019-01-05T09:45:17.194Z,15.60
2019-01-05T09:48:51.660Z,16.67
2019-01-05T09:51:55.087Z,16.93
2019-01-05T09:55:07.660Z,15.07
2019-01-05T09:58:04.851Z,16.43
2019-01-05T10:01:23.563Z,14.43
2019-01-05T10:04:31.091Z,14.90
2019-01-05T10:08:00.065Z,14.60
2019-01-05T10:11:27.651Z,17.67
2019-01-05T10:14:54.855Z,15.57
2019-01-05T10:18:01.923Z,16.67
2019-01-05T10:21:18.933Z,12.20
2019-01-05T10:24:16.615Z,13.77
2019-01-05T10:27:51.423Z,11.77
2019-01-05T10:31:10.263Z,11.27
2019-01-05T10:34:35.997Z,11.57
2019-01-05T10:38:18.764Z,12.57
2019-01-05T10:41:55.269Z,17.67
2019-01-05T10:44:49.955Z,14.53
2019-01-05T10:48:03.604Z,17.57
2019-01-05T10:51:10.264Z,18.57
2019-01-05T10:54:20.480Z,15.47
2019-01-05T10:57:52.182Z,18.57
2019-01-05T11:01:07.229Z,15.63
2019-01-05T11:04:07.163Z,15.03
2019-01-05T11:07:19.208Z,15.47
2019-01-05T11:10:33.438Z,14.07
2019-01-05T11:13:56.359Z,11.27
2019-01-05T11:16:51.013Z,9.87
2019-01-05T11:20:06.557Z,10.47
2019-01-05T11:23:04.216Z,10.40
2019-01-05T11:26:01.640Z,8.00
2019-01-05T11:29:23.728Z,12.40
2019-01-05T11:32:30.167Z,11.13
2019-01-05T11:36:00.998Z,9.30
2019-01-05T11:39:07.668Z,7.70
2019-01-05T11:42:26.383Z,8.70
2019-01-05T11:45:42.563Z,10.53
2019-01-05T11:49:02.582Z,10.60
2019-01-05T11:52:30.026Z,7.10
2019-01-05T11:55:45.507Z,7.80
2019-01-05T11:59:11.511Z,9.40
2019-01-05T12:02:41.965Z,8.60
2019-01-05T12:06:01.543Z,7.57
2019-01-05T12:09:11.194Z,7.53
2019-01-05T12:12:23.496Z,7.60
2019-01-05T12:15:46.771Z,6.47
2019-01-05T12:18:47.345Z,4.90
2019-01-05T12:21:56.182Z,5.53
2019-01-05T12:25:20.181Z,5.20
2019-01-05T12:28:43.532Z,5.67
2019-01-05T12:32:06.289Z,4.93
2019-01-05T12:35:03.992Z,4.50
2019-01-05T12:38:16.950Z,4.60
2019-01-05T12:41:39.626Z,4.13
2019-01-05T12:44:54.231Z,6.23
2019-01-05T12:48:14.184Z,3.57
2019-01-05T12:51:35.777Z,4.40
2019-01-05T12:55:03.641Z,10.17
2019-01-05T12:57:55.476Z,6.37
2019-01-05T13:01:02.141Z,6.17
2019-01-05T13:04:26.478Z,4.77
2019-01-05T13:07:20.798Z,4.90
2019-01-05T13:10:44.105Z,3.53
2019-01-05T13:13:50.501Z,3.20
2019-01-05T13:17:16.525Z,3.50
2019-01-05T13:20:39.321Z,3.07
2019-01-05T13:24:01.921Z,2.67
2019-01-05T13:27:05.471Z,2.90
2019-01-05T13:30:29.406Z,2.70
2019-01-05T13:33:56.925Z,3.07
2019-01-05T13:37:22.420Z,3.20
2019-01-05T13:40:38.414Z,2.87
2019-01-05T13:43:54.151Z,2.37
2019-01-05T13:47:32.541Z,3.00
2019-01-05T13:50:57.284Z,2.80
2019-01-05T13:53:51.204Z,2.43
2019-01-05T13:56:49.167Z,2.50
2019-01-05T13:59:37.838Z,3.33
2019-01-05T14:02:37.944Z,3.23
2019-01-05T14:05:38.803Z,2.50
2019-01-05T14:08:27.457Z,2.97
2019-01-05T14:11:16.274Z,3.07
2019-01-05T14:14:20.008Z,2.53
2019-01-05T14:17:11.471Z,2.77
2019-01-05T14:20:03.502Z,3.20
2019-01-05T14:22:52.140Z,2.63
2019-01-05T14:25:57.003Z,2.67
2019-01-05T14:29:01.231Z,2.50
2019-01-05T14:32:04.905Z,3.00
2019-01-05T14:35:09.562Z,2.60
2019-01-05T14:38:14.446Z,2.30
2019-01-05T14:41:05.890Z,2.00
2019-01-05T14:43:57.674Z,2.60
2019-01-05T14:46:58.155Z,2.80
2019-01-05T14:50:02.761Z,2.00
2019-01-05T14:52:51.733Z,2.23
2019-01-05T14:55:49.022Z,2.80
2019-01-05T14:58:52.447Z,2.30
2019-01-05T15:01:57.340Z,2.80
2019-01-05T15:04:45.918Z,2.50
2019-01-05T15:07:46.693Z,2.73
2019-01-05T15:10:38.146Z,2.63
2019-01-05T15:13:42.823Z,2.80
2019-01-05T15:16:37.755Z,3.23
2019-01-05T15:19:32.343Z,2.70
2019-01-05T15:22:21.305Z,2.77
2019-01-05T15:25:10.054Z,2.57
2019-01-05T15:27:59.111Z,2.60
2019-01-05T15:31:05.610Z,2.53
2019-01-05T15:34:10.350Z,2.60
2019-01-05T15:36:59.191Z,2.17
2019-01-05T15:39:53.616Z,2.93
2019-01-05T15:42:42.122Z,3.23
2019-01-05T15:45:42.590Z,2.50
2019-01-05T15:48:47.414Z,2.03
2019-01-05T15:51:36.091Z,2.07
2019-01-05T15:54:24.685Z,2.00
2019-01-05T15:57:28.920Z,1.70
2019-01-05T16:00:17.792Z,2.00
2019-01-05T16:03:22.530Z,2.37
2019-01-05T16:06:26.711Z,2.20
2019-01-05T16:09:24.952Z,2.60
2019-01-05T16:12:29.587Z,2.40
2019-01-05T16:15:21.516Z,3.70
2019-01-05T16:18:10.289Z,2.20
2019-01-05T16:21:07.454Z,2.50
2019-01-05T16:24:12.032Z,2.60
2019-01-05T16:27:05.315Z,2.50
2019-01-05T16:30:02.811Z,2.40
2019-01-05T16:33:08.062Z,2.53
2019-01-05T16:35:59.375Z,2.20
2019-01-05T16:38:47.976Z,2.40
2019-01-05T16:41:37.041Z,2.50
2019-01-05T16:44:39.878Z,2.67
2019-01-05T16:47:37.615Z,2.30
2019-01-05T16:50:39.260Z,2.20
2019-01-05T16:53:27.883Z,2.17
2019-01-05T16:56:16.742Z,2.10
2019-01-05T16:59:11.673Z,2.10
2019-01-05T17:02:05.713Z,2.20
2019-01-05T17:04:57.548Z,2.27
2019-01-05T17:07:58.106Z,2.03
2019-01-05T17:10:46.926Z,2.20
2019-01-05T17:13:35.674Z,2.10
2019-01-05T17:16:40.278Z,2.33
2019-01-05T17:19:44.593Z,2.17
2019-01-05T17:22:45.634Z,2.33
2019-01-05T17:25:45.994Z,2.90
2019-01-05T17:28:43.967Z,2.90
2019-01-05T17:31:49.192Z,3.83
2019-01-05T17:34:54.074Z,2.90
2019-01-05T17:37:42.636Z,2.67
2019-01-05T17:40:37.061Z,3.00
2019-01-05T17:43:31.997Z,2.83
2019-01-05T17:46:29.505Z,2.50
2019-01-05T17:49:34.506Z,2.80
2019-01-05T17:52:32.294Z,3.00
2019-01-05T17:55:20.817Z,3.00
2019-01-05T17:58:15.024Z,3.00
2019-01-05T18:01:19.946Z,3.10
2019-01-05T18:04:25.212Z,3.03
2019-01-05T18:07:22.863Z,2.77
2019-01-05T18:10:14.806Z,2.43
2019-01-05T18:13:18.644Z,2.70
2019-01-05T18:16:07.373Z,2.90
2019-01-05T18:18:59.060Z,2.60
2019-01-05T18:21:53.511Z,2.60
2019-01-05T18:24:57.879Z,2.23
2019-01-05T18:28:02.795Z,2.13
2019-01-05T18:30:54.369Z,2.47
2019-01-05T18:33:42.893Z,2.03
2019-01-05T18:36:31.787Z,2.30
2019-01-05T18:39:20.865Z,1.87
2019-01-05T18:42:17.989Z,2.17
2019-01-05T18:45:25.129Z,2.30
2019-01-05T18:48:14.163Z,2.40
2019-01-05T18:51:19.017Z,2.40
2019-01-05T18:54:24.290Z,2.30
2019-01-05T18:57:29.722Z,2.40
2019-01-05T19:00:24.610Z,2.17
2019-01-05T19:03:15.855Z,2.20
2019-01-05T19:06:20.777Z,2.20
2019-01-05T19:09:25.456Z,1.83
2019-01-05T19:12:23.540Z,2.30
2019-01-05T19:15:14.956Z,2.00
2019-01-05T19:18:06.919Z,2.10
2019-01-05T19:21:11.480Z,2.23
2019-01-05T19:24:09.430Z,2.33
2019-01-05T19:27:12.916Z,1.93
2019-01-05T19:30:07.521Z,2.63
2019-01-05T19:33:01.908Z,2.20
2019-01-05T19:35:53.459Z,3.13
2019-01-05T19:38:58.383Z,3.60
2019-01-05T19:41:53.408Z,2.90
2019-01-05T19:44:48.032Z,5.53
2019-01-05T19:47:36.662Z,3.47
2019-01-05T19:50:25.390Z,3.40
2019-01-05T19:53:13.892Z,3.53
2019-01-05T19:56:07.905Z,2.50
2019-01-05T19:59:12.485Z,2.73
2019-01-05T20:02:13.329Z,2.40
2019-01-05T20:05:02.053Z,3.13
2019-01-05T20:08:03.100Z,2.80
2019-01-05T20:10:57.683Z,2.53
2019-01-05T20:13:46.326Z,2.37
2019-01-05T20:16:34.939Z,2.30
2019-01-05T20:19:23.445Z,2.20
2019-01-05T20:22:17.798Z,1.83
2019-01-05T20:25:25.301Z,4.23
2019-01-05T20:28:29.884Z,10.43
2019-01-05T20:31:18.879Z,2.07
2019-01-05T20:34:25.653Z,2.77
2019-01-05T20:37:26.114Z,2.90
2019-01-05T20:40:20.637Z,3.00
2019-01-05T20:43:25.529Z,2.10
2019-01-05T20:46:30.793Z,2.70
2019-01-05T20:49:31.348Z,1.93
2019-01-05T20:52:31.735Z,2.73
2019-01-05T20:55:20.507Z,2.23
2019-01-05T20:58:20.446Z,1.97
2019-01-05T21:01:11.871Z,2.40
2019-01-05T21:04:03.486Z,2.50
2019-01-05T21:06:54.828Z,2.60
2019-01-05T21:09:43.434Z,2.10
2019-01-05T21:12:32.428Z,2.10
2019-01-05T21:15:26.911Z,2.30
2019-01-05T21:18:32.003Z,2.40
2019-01-05T21:21:26.732Z,2.50
2019-01-05T21:24:15.323Z,2.23
2019-01-05T21:27:13.102Z,2.30
2019-01-05T21:30:04.597Z,2.37
2019-01-05T21:32:56.152Z,2.20
2019-01-05T21:35:47.760Z,2.50
2019-01-05T21:38:36.726Z,2.50
2019-01-05T21:41:25.515Z,2.70
2019-01-05T21:44:17.211Z,2.67
2019-01-05T21:47:20.853Z,2.43
2019-01-05T21:50:18.758Z,2.37
2019-01-05T21:53:23.760Z,2.20
2019-01-05T21:56:12.837Z,2.13
2019-01-05T21:59:01.619Z,2.63
2019-01-05T22:01:53.106Z,2.50
2019-01-05T22:04:48.163Z,2.57
2019-01-05T22:07:39.777Z,2.57
2019-01-05T22:10:31.314Z,2.80
2019-01-05T22:13:36.045Z,2.50
2019-01-05T22:16:27.735Z,3.10
2019-01-05T22:19:18.994Z,2.63
2019-01-05T22:22:19.481Z,2.90
2019-01-05T22:25:23.163Z,3.23
2019-01-05T22:28:17.167Z,2.90
2019-01-05T22:31:08.366Z,2.53
2019-01-05T22:34:03.351Z,2.47
2019-01-05T22:36:58.458Z,2.80
2019-01-05T22:39:53.239Z,2.73
2019-01-05T22:42:41.998Z,2.67
2019-01-05T22:45:33.477Z,2.50
2019-01-05T22:48:25.160Z,2.77
2019-01-05T22:51:25.751Z,2.53
2019-01-05T22:54:19.963Z,2.67
2019-01-05T22:57:08.739Z,2.90
2019-01-05T23:00:03.615Z,3.00
2019-01-05T23:02:52.181Z,2.70
2019-01-05T23:05:40.994Z,2.47
2019-01-05T23:08:29.304Z,3.00
2019-01-05T23:11:20.468Z,2.20
2019-01-05T23:14:20.958Z,2.40
2019-01-05T23:17:27.830Z,2.20
2019-01-05T23:20:33.032Z,2.60
2019-01-05T23:23:33.699Z,2.07
2019-01-05T23:26:28.145Z,2.17
2019-01-05T23:29:32.945Z,2.40
2019-01-05T23:32:27.031Z,2.60
2019-01-05T23:35:21.334Z,1.97
2019-01-05T23:38:09.951Z,2.20
2019-01-05T23:41:14.614Z,2.43
2019-01-05T23:44:06.079Z,2.50
2019-01-05T23:46:57.623Z,2.50
2019-01-05T23:49:46.312Z,2.53
2019-01-05T23:52:46.788Z,2.60
2019-01-05T23:55:51.723Z,2.20
2019-01-05T23:58:58.332Z,2.30
